createdAt,value
2017-11-27T00:02:01.934Z,3.37
2017-11-27T00:04:29.634Z,3.07
2017-11-27T00:06:58.821Z,3.63
2017-11-27T00:09:26.493Z,2.63
2017-11-27T00:11:54.877Z,2.77
2017-11-27T00:14:23.360Z,3.07
2017-11-27T00:16:51.741Z,3.70
2017-11-27T00:19:20.871Z,3.90
2017-11-27T00:21:48.563Z,4.23
2017-11-27T00:24:16.261Z,4.90
2017-11-27T00:26:45.376Z,3.73
2017-11-27T00:29:13.739Z,3.30
2017-11-27T00:31:42.940Z,3.07
2017-11-27T00:34:11.321Z,2.77
2017-11-27T00:36:40.451Z,3.00
2017-11-27T00:39:08.045Z,3.27
2017-11-27T00:41:35.752Z,3.20
2017-11-27T00:44:04.129Z,3.07
2017-11-27T00:46:32.517Z,2.20
2017-11-27T00:49:00.989Z,3.20
2017-11-27T00:51:29.383Z,3.03
2017-11-27T00:53:57.733Z,2.97
2017-11-27T00:56:29.276Z,3.67
2017-11-27T00:58:56.866Z,3.40
2017-11-27T01:01:25.238Z,3.57
2017-11-27T01:03:53.598Z,2.73
2017-11-27T01:06:21.190Z,3.00
2017-11-27T01:08:48.841Z,3.97
2017-11-27T01:11:17.206Z,3.23
2017-11-27T01:13:44.831Z,3.20
2017-11-27T01:16:12.426Z,2.63
2017-11-27T01:18:40.114Z,3.10
2017-11-27T01:21:08.498Z,3.30
2017-11-27T01:23:36.979Z,3.73
2017-11-27T01:26:05.357Z,2.77
2017-11-27T01:28:33.743Z,3.00
2017-11-27T01:31:02.102Z,2.93
2017-11-27T01:33:29.777Z,3.07
2017-11-27T01:35:57.359Z,3.77
2017-11-27T01:38:25.742Z,2.80
2017-11-27T01:40:54.097Z,2.70
2017-11-27T01:43:22.486Z,2.53
2017-11-27T01:45:50.967Z,3.03
2017-11-27T01:48:19.322Z,3.00
2017-11-27T01:50:46.937Z,2.60
2017-11-27T01:53:14.532Z,3.63
2017-11-27T01:55:42.229Z,3.00
2017-11-27T01:58:09.887Z,2.93
2017-11-27T02:00:39.022Z,2.80
2017-11-27T02:03:06.654Z,3.00
2017-11-27T02:05:35.134Z,2.43
2017-11-27T02:08:03.494Z,3.20
2017-11-27T02:10:31.105Z,3.70
2017-11-27T02:12:58.738Z,3.23
2017-11-27T02:15:26.340Z,3.20
2017-11-27T02:17:53.961Z,2.90
2017-11-27T02:20:22.438Z,3.93
2017-11-27T02:22:50.036Z,3.43
2017-11-27T02:25:17.624Z,4.20
2017-11-27T02:27:45.237Z,4.50
2017-11-27T02:30:13.610Z,3.90
2017-11-27T02:32:42.084Z,3.90
2017-11-27T02:35:11.174Z,4.20
2017-11-27T02:37:40.479Z,3.50
2017-11-27T02:40:08.150Z,3.40
2017-11-27T02:42:37.345Z,4.30
2017-11-27T02:45:05.014Z,3.30
2017-11-27T02:47:34.136Z,4.13
2017-11-27T02:50:02.594Z,3.40
2017-11-27T02:52:31.078Z,4.23
2017-11-27T02:54:59.457Z,4.20
2017-11-27T02:57:27.838Z,3.60
2017-11-27T02:59:55.440Z,3.83
2017-11-27T03:02:23.067Z,3.40
2017-11-27T03:04:51.455Z,3.50
2017-11-27T03:07:19.822Z,3.93
2017-11-27T03:09:48.196Z,3.17
2017-11-27T03:12:16.582Z,3.07
2017-11-27T03:14:45.062Z,3.87
2017-11-27T03:17:12.645Z,3.97
2017-11-27T03:19:41.018Z,3.30
2017-11-27T03:22:09.370Z,3.00
2017-11-27T03:24:37.046Z,3.30
2017-11-27T03:27:05.405Z,3.70
2017-11-27T03:29:33.018Z,3.40
2017-11-27T03:32:00.618Z,3.50
2017-11-27T03:34:28.234Z,3.87
2017-11-27T03:36:56.593Z,3.60
2017-11-27T03:39:24.970Z,3.00
2017-11-27T03:41:53.317Z,3.97
2017-11-27T03:44:21.009Z,3.50
2017-11-27T03:46:48.681Z,3.83
2017-11-27T03:49:17.058Z,3.47
2017-11-27T03:51:45.437Z,2.30
2017-11-27T03:54:14.541Z,3.60
2017-11-27T03:56:43.010Z,3.30
2017-11-27T03:59:10.677Z,3.23
2017-11-27T04:01:38.294Z,3.63
2017-11-27T04:04:05.906Z,3.93
2017-11-27T04:06:35.034Z,4.17
2017-11-27T04:09:02.623Z,3.73
2017-11-27T04:11:30.243Z,4.17
2017-11-27T04:13:58.589Z,3.50
2017-11-27T04:16:26.270Z,4.67
2017-11-27T04:18:54.651Z,4.17
2017-11-27T04:21:22.307Z,4.00
2017-11-27T04:23:49.928Z,4.60
2017-11-27T04:26:17.543Z,4.90
2017-11-27T04:28:45.943Z,4.20
2017-11-27T04:31:13.582Z,4.50
2017-11-27T04:33:42.123Z,3.73
2017-11-27T04:36:09.725Z,4.90
2017-11-27T04:38:38.837Z,5.23
2017-11-27T04:41:07.297Z,4.40
2017-11-27T04:43:36.497Z,4.57
2017-11-27T04:46:04.086Z,4.50
2017-11-27T04:48:32.468Z,5.53
2017-11-27T04:51:00.846Z,3.63
2017-11-27T04:53:29.249Z,4.10
2017-11-27T04:55:56.853Z,4.80
2017-11-27T04:58:24.443Z,4.43
2017-11-27T05:00:52.905Z,3.90
2017-11-27T05:03:20.554Z,3.10
2017-11-27T05:05:48.228Z,4.30
2017-11-27T05:08:15.813Z,4.30
2017-11-27T05:10:44.213Z,4.70
2017-11-27T05:13:11.806Z,4.00
2017-11-27T05:15:39.427Z,4.53
2017-11-27T05:18:07.028Z,4.07
2017-11-27T05:20:34.642Z,4.53
2017-11-27T05:23:02.995Z,4.07
2017-11-27T05:25:30.604Z,3.70
2017-11-27T05:27:58.227Z,3.83
2017-11-27T05:30:25.953Z,4.50
2017-11-27T05:32:53.650Z,3.20
2017-11-27T05:35:21.302Z,3.97
2017-11-27T05:37:48.922Z,4.13
2017-11-27T05:40:16.512Z,3.47
2017-11-27T05:42:44.147Z,4.10
2017-11-27T05:45:11.729Z,4.20
2017-11-27T05:47:39.344Z,4.37
2017-11-27T05:50:07.702Z,4.37
2017-11-27T05:52:35.308Z,4.43
2017-11-27T05:55:02.913Z,4.47
2017-11-27T05:57:30.558Z,4.77
2017-11-27T05:59:58.153Z,5.07
2017-11-27T06:02:25.820Z,5.60
2017-11-27T06:04:54.262Z,4.10
2017-11-27T06:07:21.878Z,5.50
2017-11-27T06:09:49.520Z,4.87
2017-11-27T06:12:17.190Z,5.80
2017-11-27T06:14:46.389Z,5.87
2017-11-27T06:17:14.799Z,3.80
2017-11-27T06:19:42.389Z,5.20
2017-11-27T06:22:09.973Z,5.43
2017-11-27T06:24:37.586Z,6.30
2017-11-27T06:27:05.183Z,6.20
2017-11-27T06:29:32.807Z,6.17
2017-11-27T06:32:00.404Z,6.83
2017-11-27T06:34:28.014Z,6.03
2017-11-27T06:36:56.372Z,5.27
2017-11-27T06:39:24.058Z,7.37
2017-11-27T06:41:52.413Z,7.30
2017-11-27T06:44:20.091Z,6.00
2017-11-27T06:46:48.442Z,7.07
2017-11-27T06:49:16.129Z,7.53
2017-11-27T06:51:43.807Z,7.70
2017-11-27T06:54:12.223Z,8.17
2017-11-27T06:56:39.898Z,7.60
2017-11-27T06:59:07.598Z,7.17
2017-11-27T07:01:35.265Z,8.47
2017-11-27T07:04:02.930Z,8.50
2017-11-27T07:06:31.414Z,7.90
2017-11-27T07:08:59.769Z,8.67
2017-11-27T07:11:27.389Z,8.10
2017-11-27T07:13:54.989Z,8.60
2017-11-27T07:16:22.609Z,8.03
2017-11-27T07:18:50.244Z,10.80
2017-11-27T07:21:18.721Z,8.30
2017-11-27T07:23:46.311Z,9.10
2017-11-27T07:26:13.934Z,8.57
2017-11-27T07:28:41.605Z,9.30
2017-11-27T07:31:09.261Z,9.17
2017-11-27T07:33:36.934Z,8.60
2017-11-27T08:31:08.230Z,10.60
2017-11-27T08:33:35.894Z,10.77
2017-11-27T08:36:03.557Z,10.27
2017-11-27T08:38:31.150Z,10.50
2017-11-27T08:40:58.762Z,11.33
2017-11-27T08:43:26.353Z,10.27
2017-11-27T08:45:54.822Z,10.40
2017-11-27T08:48:22.418Z,10.60
2017-11-27T08:50:50.030Z,9.67
2017-11-27T08:53:17.631Z,11.17
2017-11-27T08:55:46.100Z,9.37
2017-11-27T08:58:14.458Z,10.03
2017-11-27T09:00:42.133Z,10.07
2017-11-27T09:03:09.793Z,9.23
2017-11-27T09:05:37.386Z,9.20
2017-11-27T09:08:05.017Z,8.70
2017-11-27T09:10:33.398Z,8.00
2017-11-27T09:13:01.017Z,9.17
2017-11-27T09:15:28.605Z,7.90
2017-11-27T09:17:56.226Z,9.23
2017-11-27T09:20:23.821Z,8.90
2017-11-27T09:22:51.438Z,9.00
2017-11-27T09:25:19.022Z,9.60
2017-11-27T09:27:46.731Z,9.57
2017-11-27T09:30:15.198Z,8.80
2017-11-27T09:32:42.874Z,8.97
2017-11-27T09:35:10.543Z,9.60
2017-11-27T09:37:38.909Z,9.67
2017-11-27T09:40:06.539Z,9.20
2017-11-27T09:42:34.133Z,9.60
2017-11-27T09:45:01.803Z,9.50
2017-11-27T09:47:30.181Z,9.10
2017-11-27T09:49:57.841Z,8.07
2017-11-27T09:52:27.047Z,9.73
2017-11-27T09:54:55.527Z,9.03
2017-11-27T09:57:23.882Z,9.30
2017-11-27T09:59:51.565Z,8.67
2017-11-27T10:02:19.229Z,9.30
2017-11-27T10:04:46.833Z,8.40
2017-11-27T10:07:14.458Z,8.50
2017-11-27T10:09:43.575Z,8.77
2017-11-27T10:12:11.930Z,8.37
2017-11-27T10:14:42.057Z,7.70
2017-11-27T10:17:10.418Z,9.77
2017-11-27T10:19:38.094Z,9.60
2017-11-27T10:22:06.574Z,7.80
2017-11-27T10:24:34.925Z,7.07
2017-11-27T10:27:02.617Z,7.93
2017-11-27T10:29:30.969Z,8.37
2017-11-27T10:31:58.659Z,7.87
2017-11-27T10:34:27.036Z,6.77
2017-11-27T10:36:56.158Z,7.67
2017-11-27T10:39:24.618Z,6.63
2017-11-27T10:41:52.994Z,6.60
2017-11-27T10:44:20.591Z,8.90
2017-11-27T10:46:48.225Z,7.33
2017-11-27T10:49:16.574Z,7.60
2017-11-27T10:51:44.183Z,6.57
2017-11-27T10:54:12.642Z,6.53
2017-11-27T10:56:41.127Z,6.70
2017-11-27T10:59:10.223Z,7.10
2017-11-27T11:01:38.602Z,7.13
2017-11-27T11:04:06.209Z,7.70
2017-11-27T11:06:33.797Z,7.20
2017-11-27T11:09:01.396Z,7.60
2017-11-27T11:11:29.761Z,8.77
2017-11-27T11:13:58.135Z,5.70
2017-11-27T11:16:25.823Z,7.07
2017-11-27T11:18:54.201Z,7.40
2017-11-27T11:21:22.561Z,6.20
2017-11-27T11:23:50.226Z,6.50
2017-11-27T11:26:18.580Z,7.13
2017-11-27T11:28:46.273Z,7.97
2017-11-27T11:31:15.470Z,6.87
2017-11-27T11:33:43.842Z,6.47
2017-11-27T11:36:11.431Z,7.70
2017-11-27T11:38:39.841Z,6.87
2017-11-27T11:41:07.429Z,5.07
2017-11-27T11:43:35.013Z,6.00
2017-11-27T11:46:03.456Z,6.47
2017-11-27T11:48:31.038Z,5.40
2017-11-27T11:50:58.716Z,5.50
2017-11-27T11:53:27.806Z,6.17
2017-11-27T11:55:55.413Z,5.50
2017-11-27T11:58:23.022Z,5.30
2017-11-27T12:00:50.621Z,5.83
2017-11-27T12:03:18.973Z,5.90
2017-11-27T12:05:47.341Z,5.57
2017-11-27T12:08:15.023Z,5.80
2017-11-27T12:10:44.146Z,4.57
2017-11-27T12:13:12.593Z,5.33
2017-11-27T12:15:40.254Z,4.90
2017-11-27T12:18:07.926Z,4.70
2017-11-27T12:20:36.275Z,4.90
2017-11-27T12:23:03.966Z,4.60
2017-11-27T12:25:33.054Z,4.83
2017-11-27T12:28:01.445Z,5.23
2017-11-27T12:30:29.106Z,4.97
2017-11-27T12:32:58.217Z,4.70
2017-11-27T12:35:26.556Z,5.17
2017-11-27T12:37:54.158Z,4.70
2017-11-27T12:40:22.506Z,5.50
2017-11-27T12:42:50.117Z,4.50
2017-11-27T12:45:17.738Z,4.47
2017-11-27T12:47:46.114Z,5.07
2017-11-27T12:50:13.751Z,4.60
2017-11-27T12:52:41.353Z,3.73
2017-11-27T12:55:08.938Z,4.83
2017-11-27T12:57:36.670Z,4.33
2017-11-27T13:00:04.334Z,4.17
2017-11-27T13:02:33.430Z,4.63
2017-11-27T13:05:01.034Z,4.30
2017-11-27T13:07:28.617Z,5.03
2017-11-27T13:09:56.222Z,4.60
2017-11-27T13:12:23.881Z,4.33
2017-11-27T13:14:52.358Z,4.30
2017-11-27T13:17:20.739Z,5.40
2017-11-27T13:19:49.158Z,4.00
2017-11-27T13:22:16.742Z,4.17
2017-11-27T13:24:44.442Z,4.87
2017-11-27T13:27:13.533Z,6.47
2017-11-27T13:29:41.909Z,8.70
2017-11-27T13:32:09.490Z,5.70
2017-11-27T13:34:37.881Z,6.00
2017-11-27T13:37:06.349Z,4.93
2017-11-27T13:39:34.723Z,5.27
2017-11-27T13:42:03.922Z,5.63
2017-11-27T13:44:31.582Z,5.40
2017-11-27T13:46:59.245Z,7.07
2017-11-27T13:49:28.441Z,5.10
2017-11-27T13:51:56.050Z,4.93
2017-11-27T13:54:23.670Z,5.50
2017-11-27T13:56:52.048Z,5.87
2017-11-27T13:59:19.709Z,5.10
2017-11-27T14:01:48.822Z,4.77
2017-11-27T14:04:17.168Z,4.90
2017-11-27T14:06:44.777Z,4.57
2017-11-27T14:09:13.198Z,5.20
2017-11-27T14:11:40.893Z,4.43
2017-11-27T14:14:09.370Z,4.73
2017-11-27T14:16:36.957Z,8.90
2017-11-27T14:19:05.434Z,14.53
2017-11-27T14:21:33.795Z,13.63
2017-11-27T14:24:01.457Z,16.97
2017-11-27T14:26:29.817Z,10.47
2017-11-27T14:28:57.430Z,7.80
2017-11-27T14:31:25.022Z,5.73
2017-11-27T14:33:52.625Z,5.60
2017-11-27T14:36:20.978Z,5.10
2017-11-27T14:38:49.277Z,4.97
2017-11-27T14:41:18.482Z,5.07
2017-11-27T14:43:46.959Z,7.70
2017-11-27T14:46:15.338Z,4.63
2017-11-27T14:48:43.722Z,12.83
2017-11-27T14:51:12.815Z,6.40
2017-11-27T14:53:41.294Z,5.50
2017-11-27T14:56:08.877Z,3.83
2017-11-27T14:58:37.229Z,3.87
2017-11-27T15:01:04.898Z,2.87
2017-11-27T15:03:32.486Z,2.67
2017-11-27T15:06:00.903Z,2.23
2017-11-27T15:08:28.606Z,2.37
2017-11-27T15:10:57.086Z,2.40
2017-11-27T15:13:25.451Z,3.50
2017-11-27T15:15:53.126Z,2.83
2017-11-27T15:18:20.789Z,2.13
2017-11-27T15:20:48.449Z,3.23
2017-11-27T15:23:16.118Z,3.67
2017-11-27T15:25:44.493Z,3.50
2017-11-27T15:28:12.082Z,3.23
2017-11-27T15:30:40.434Z,2.30
2017-11-27T15:33:08.093Z,2.30
2017-11-27T15:35:35.758Z,3.40
2017-11-27T15:38:03.381Z,2.37
2017-11-27T15:40:30.981Z,2.40
2017-11-27T15:42:58.590Z,3.63
2017-11-27T15:45:26.206Z,2.30
2017-11-27T15:47:53.821Z,2.00
2017-11-27T15:50:21.412Z,2.70
2017-11-27T15:52:49.027Z,2.10
2017-11-27T15:55:16.619Z,2.20
2017-11-27T15:57:44.322Z,3.47
2017-11-27T16:00:11.910Z,2.47
2017-11-27T16:02:39.517Z,3.10
2017-11-27T16:05:07.133Z,1.37
2017-11-27T16:07:34.742Z,2.53
2017-11-27T16:10:02.340Z,2.57
2017-11-27T16:12:29.985Z,2.50
2017-11-27T16:14:57.572Z,3.37
2017-11-27T16:17:25.926Z,2.30
2017-11-27T16:19:53.534Z,3.07
2017-11-27T16:22:21.249Z,5.67
2017-11-27T16:24:48.862Z,8.33
2017-11-27T16:27:16.487Z,5.87
2017-11-27T16:29:44.865Z,3.93
2017-11-27T16:32:13.320Z,2.93
2017-11-27T16:34:40.929Z,2.10
2017-11-27T16:37:08.515Z,2.13
2017-11-27T16:39:36.117Z,3.00
2017-11-27T16:42:03.782Z,3.10
2017-11-27T16:44:31.446Z,3.40
2017-11-27T16:46:59.034Z,2.63
2017-11-27T16:49:27.409Z,3.23
2017-11-27T16:51:55.762Z,3.43
2017-11-27T16:54:23.435Z,2.60
2017-11-27T16:56:51.795Z,2.60
2017-11-27T16:59:19.406Z,2.93
2017-11-27T17:01:47.031Z,10.40
2017-11-27T17:04:14.694Z,8.53
2017-11-27T17:06:42.277Z,4.13
2017-11-27T17:09:10.654Z,4.07
2017-11-27T17:11:39.006Z,3.50
2017-11-27T17:14:06.638Z,2.43
2017-11-27T17:16:34.238Z,3.10
2017-11-27T17:19:01.842Z,2.90
2017-11-27T17:21:29.450Z,3.20
2017-11-27T17:23:57.041Z,2.20
2017-11-27T17:26:25.502Z,2.40
2017-11-27T17:28:53.090Z,2.13
2017-11-27T17:31:20.706Z,2.87
2017-11-27T17:33:48.385Z,2.13
2017-11-27T17:36:16.774Z,2.03
2017-11-27T17:38:45.127Z,2.20
2017-11-27T17:41:12.737Z,2.50
2017-11-27T17:46:13.262Z,1.50
2017-11-27T17:48:41.634Z,1.90
2017-11-27T17:51:09.237Z,2.00
2017-11-27T17:53:36.830Z,1.80
2017-11-27T17:56:04.454Z,2.30
2017-11-27T17:58:32.082Z,1.80
2017-11-27T18:00:59.666Z,2.03
2017-11-27T18:03:28.038Z,2.30
2017-11-27T18:05:56.398Z,1.60
2017-11-27T18:08:24.057Z,2.90
2017-11-27T18:10:51.725Z,1.80
2017-11-27T18:13:19.338Z,1.50
2017-11-27T18:15:46.930Z,1.70
2017-11-27T18:18:14.609Z,1.87
2017-11-27T18:20:42.958Z,1.70
2017-11-27T18:23:10.635Z,1.60
2017-11-27T18:25:38.321Z,1.57
2017-11-27T18:28:05.989Z,1.50
2017-11-27T18:30:34.357Z,1.80
2017-11-27T18:33:02.022Z,1.60
2017-11-27T18:35:29.612Z,1.90
2017-11-27T18:37:57.230Z,1.37
2017-11-27T18:40:24.821Z,1.60
2017-11-27T18:42:53.290Z,1.40
2017-11-27T18:45:20.882Z,1.33
2017-11-27T18:47:48.513Z,1.47
2017-11-27T18:50:16.893Z,3.90
2017-11-27T18:52:44.551Z,2.00
2017-11-27T18:55:12.162Z,2.50
2017-11-27T18:57:39.754Z,2.30
2017-11-27T19:00:07.367Z,2.67
2017-11-27T19:02:34.997Z,2.20
2017-11-27T19:05:02.606Z,2.40
2017-11-27T19:07:30.193Z,2.20
2017-11-27T19:09:57.813Z,2.50
2017-11-27T19:12:25.397Z,2.43
2017-11-27T19:14:53.006Z,1.73
2017-11-27T19:17:20.669Z,2.10
2017-11-27T19:19:49.254Z,1.40
2017-11-27T19:22:16.846Z,1.70
2017-11-27T19:24:44.574Z,2.60
2017-11-27T19:27:12.163Z,2.37
2017-11-27T19:29:40.522Z,2.30
2017-11-27T19:32:08.904Z,2.40
2017-11-27T19:34:36.561Z,2.37
2017-11-27T19:37:04.176Z,2.30
2017-11-27T19:39:31.770Z,1.73
2017-11-27T19:41:59.440Z,2.37
2017-11-27T19:44:27.033Z,1.60
2017-11-27T19:46:55.412Z,1.53
2017-11-27T19:49:23.762Z,1.80
2017-11-27T19:51:51.421Z,2.10
2017-11-27T19:54:19.093Z,2.30
2017-11-27T19:56:46.705Z,2.10
2017-11-27T19:59:14.318Z,2.30
2017-11-27T20:01:42.694Z,1.70
2017-11-27T20:04:10.363Z,1.63
2017-11-27T20:06:38.018Z,1.63
2017-11-27T20:09:05.688Z,2.03
2017-11-27T20:11:34.043Z,2.00
2017-11-27T20:14:01.655Z,2.90
2017-11-27T20:16:29.270Z,2.07
2017-11-27T20:18:56.893Z,2.30
2017-11-27T20:21:24.481Z,2.13
2017-11-27T20:23:52.095Z,2.13
2017-11-27T20:26:20.550Z,2.30
2017-11-27T20:28:48.158Z,2.13
2017-11-27T20:31:15.839Z,2.13
2017-11-27T20:33:43.538Z,2.00
2017-11-27T20:36:11.134Z,2.40
2017-11-27T20:38:38.741Z,2.20
2017-11-27T20:41:06.326Z,2.50
2017-11-27T20:43:34.674Z,2.30
2017-11-27T20:46:02.280Z,2.63
2017-11-27T20:48:30.629Z,2.53
2017-11-27T20:50:58.249Z,2.27
2017-11-27T20:53:25.837Z,2.90
2017-11-27T20:55:53.528Z,2.33
2017-11-27T20:58:22.614Z,2.67
2017-11-27T21:00:50.281Z,2.43
2017-11-27T21:03:17.871Z,2.83
2017-11-27T21:05:46.245Z,3.30
2017-11-27T21:08:14.597Z,2.80
2017-11-27T21:10:42.203Z,3.30
2017-11-27T21:13:09.836Z,3.10
2017-11-27T21:15:38.950Z,2.83
2017-11-27T21:18:07.413Z,3.43
2017-11-27T21:20:36.510Z,3.33
2017-11-27T21:23:04.985Z,3.50
2017-11-27T21:25:32.653Z,3.43
2017-11-27T21:28:01.025Z,3.57
2017-11-27T21:30:28.615Z,2.73
2017-11-27T21:32:56.990Z,3.60
2017-11-27T21:35:25.450Z,3.30
2017-11-27T21:37:53.062Z,3.00
2017-11-27T21:40:20.669Z,4.30
2017-11-27T21:42:48.278Z,4.83
2017-11-27T21:45:15.865Z,3.97
2017-11-27T21:47:43.482Z,2.77
2017-11-27T21:50:11.825Z,2.90
2017-11-27T21:52:39.498Z,7.20
2017-11-27T21:55:07.094Z,3.83
2017-11-27T21:57:34.822Z,4.97
2017-11-27T22:00:03.178Z,4.30
2017-11-27T22:02:30.766Z,3.10
2017-11-27T22:04:59.885Z,3.73
2017-11-27T22:07:28.234Z,4.87
2017-11-27T22:09:55.841Z,3.70
2017-11-27T22:12:23.465Z,3.83
2017-11-27T22:14:51.130Z,3.80
2017-11-27T22:17:19.505Z,4.50
2017-11-27T22:19:48.619Z,3.63
2017-11-27T22:22:16.967Z,4.23
2017-11-27T22:24:44.581Z,4.90
2017-11-27T22:27:12.202Z,6.27
2017-11-27T22:29:41.406Z,4.50
2017-11-27T22:32:09.754Z,5.17
2017-11-27T22:34:37.455Z,4.03
2017-11-27T22:37:06.646Z,6.67
2017-11-27T22:39:35.031Z,4.40
2017-11-27T22:42:02.637Z,5.10
2017-11-27T22:44:30.222Z,3.50
2017-11-27T22:46:57.913Z,3.90
2017-11-27T22:49:25.574Z,4.63
2017-11-27T22:51:53.953Z,3.90
2017-11-27T22:54:22.329Z,4.50
2017-11-27T22:56:49.937Z,4.70
2017-11-27T22:59:17.553Z,5.40
2017-11-27T23:01:45.165Z,3.93
2017-11-27T23:04:12.779Z,4.97
2017-11-27T23:06:41.982Z,4.27
2017-11-27T23:09:10.330Z,4.30
2017-11-27T23:11:38.021Z,4.23
2017-11-27T23:14:07.224Z,3.43
2017-11-27T23:16:35.579Z,4.23
2017-11-27T23:19:03.195Z,4.53
2017-11-27T23:21:30.779Z,4.43
2017-11-27T23:23:58.481Z,4.07
2017-11-27T23:26:27.680Z,4.00
2017-11-27T23:28:56.049Z,3.50
2017-11-27T23:31:23.625Z,4.07
2017-11-27T23:33:51.992Z,4.47
2017-11-27T23:36:19.565Z,4.50
2017-11-27T23:38:47.933Z,4.47
2017-11-27T23:41:16.431Z,4.27
2017-11-27T23:43:44.901Z,4.70
2017-11-27T23:46:12.483Z,4.70
2017-11-27T23:48:40.934Z,3.97
2017-11-27T23:51:08.514Z,4.87
2017-11-27T23:53:37.700Z,5.50
2017-11-27T23:56:05.366Z,3.53
2017-11-27T23:58:32.985Z,3.67
